Time;durP1;ratioP1;P1;durP2;ratioP2;P2;SDS_P1;SDS_P2;PMS_P1;PMS_P2;Temp;Humidity;BMP_temperature;BMP_pressure;BME280_temperature;BME280_humidity;BME280_pressure;Samples;Min_cycle;Max_cycle;Signal;HPM_P1;HPM_P2
2023/02/15 00:00:11;;;;;;;2.33;2.03;;;;;;;;;;5115205;28;20027;-84
2023/02/15 00:02:37;;;;;;;2.72;2.05;;;;;;;;;;5132475;28;20027;-84
2023/02/15 00:05:03;;;;;;;1.65;1.38;;;;;;;;;;5097875;28;20043;-84
2023/02/15 00:07:29;;;;;;;3.78;2.30;;;;;;;;;;5133209;28;20083;-84
2023/02/15 00:09:55;;;;;;;3.17;2.30;;;;;;;;;;5115381;28;20031;-84
2023/02/15 00:12:21;;;;;;;5.00;2.17;;;;;;;;;;5098753;28;20035;-83
2023/02/15 00:14:47;;;;;;;1.58;1.52;;;;;;;;;;5125503;28;20039;-83
2023/02/15 00:17:13;;;;;;;5.53;1.73;;;;;;;;;;5123298;28;20038;-83
2023/02/15 00:19:40;;;;;;;4.20;2.53;;;;;;;;;;5083768;28;20036;-82
2023/02/15 00:22:06;;;;;;;4.85;2.33;;;;;;;;;;5126761;28;20036;-84
2023/02/15 00:24:32;;;;;;;4.35;2.70;;;;;;;;;;5098353;28;20107;-83
2023/02/15 00:26:58;;;;;;;3.08;2.20;;;;;;;;;;5132944;28;20031;-83
2023/02/15 00:29:24;;;;;;;5.70;2.28;;;;;;;;;;5116126;28;20065;-84
2023/02/15 00:31:50;;;;;;;3.50;2.15;;;;;;;;;;5133829;28;20032;-85
2023/02/15 00:34:20;;;;;;;2.90;1.80;;;;;;;;;;5130383;28;20032;-85
2023/02/15 00:36:46;;;;;;;2.30;2.10;;;;;;;;;;5136462;28;20030;-85
2023/02/15 00:39:14;;;;;;;3.03;1.73;;;;;;;;;;5130705;28;20039;-85
2023/02/15 00:41:41;;;;;;;23.17;3.22;;;;;;;;;;5133689;28;20533;-84
2023/02/15 00:44:07;;;;;;;2.22;1.77;;;;;;;;;;5113806;28;20043;-85
2023/02/15 00:46:33;;;;;;;2.00;1.90;;;;;;;;;;5132763;28;20036;-85
2023/02/15 00:48:59;;;;;;;2.20;2.00;;;;;;;;;;5118084;28;20074;-84
2023/02/15 00:51:25;;;;;;;2.33;2.10;;;;;;;;;;5124859;28;20035;-84
2023/02/15 00:53:51;;;;;;;2.63;1.98;;;;;;;;;;5133653;28;20066;-85
2023/02/15 00:56:17;;;;;;;6.25;2.40;;;;;;;;;;5133082;28;20035;-85
2023/02/15 00:58:44;;;;;;;4.03;1.80;;;;;;;;;;5133964;28;20043;-83
2023/02/15 01:01:11;;;;;;;2.63;1.95;;;;;;;;;;5133257;28;20035;-81
2023/02/15 01:03:37;;;;;;;2.38;2.17;;;;;;;;;;5113245;28;20031;-81
2023/02/15 01:06:03;;;;;;;2.00;1.90;;;;;;;;;;5126252;28;20036;-83
2023/02/15 01:08:29;;;;;;;2.35;2.05;;;;;;;;;;5127500;28;20036;-83
2023/02/15 01:10:55;;;;;;;1.92;1.83;;;;;;;;;;5127502;28;20041;-83
2023/02/15 01:13:21;;;;;;;4.63;2.80;;;;;;;;;;5124697;28;20098;-83
2023/02/15 01:15:52;;;;;;;2.88;1.95;;;;;;;;;;5125292;28;20036;-84
2023/02/15 01:18:18;;;;;;;4.18;2.17;;;;;;;;;;5119906;28;20092;-81
2023/02/15 01:20:44;;;;;;;3.38;2.85;;;;;;;;;;5116369;28;20043;-84
2023/02/15 01:23:10;;;;;;;3.08;2.83;;;;;;;;;;5101718;28;20027;-84
2023/02/15 01:25:38;;;;;;;4.13;3.58;;;;;;;;;;5117646;28;20092;-84
2023/02/15 01:28:04;;;;;;;2.55;1.77;;;;;;;;;;5119818;28;20039;-83
2023/02/15 01:30:32;;;;;;;4.30;2.45;;;;;;;;;;5119488;28;20055;-82
2023/02/15 01:32:58;;;;;;;2.75;1.83;;;;;;;;;;5121719;28;20046;-83
2023/02/15 01:35:24;;;;;;;2.13;1.85;;;;;;;;;;5122124;28;20040;-83
2023/02/15 01:37:50;;;;;;;2.83;1.65;;;;;;;;;;5122701;28;20024;-83
2023/02/15 01:40:17;;;;;;;1.77;1.67;;;;;;;;;;5102901;28;20028;-81
2023/02/15 01:42:44;;;;;;;2.83;2.35;;;;;;;;;;5121055;28;20036;-82
2023/02/15 01:45:11;;;;;;;4.30;2.38;;;;;;;;;;5127984;28;20028;-83
2023/02/15 01:47:46;;;;;;;2.22;2.03;;;;;;;;;;5130498;28;20569;-82
2023/02/15 01:50:28;;;;;;;1.98;1.83;;;;;;;;;;5127832;28;20027;-79
2023/02/15 01:52:54;;;;;;;2.47;1.92;;;;;;;;;;5128481;28;20024;-80
2023/02/15 01:55:21;;;;;;;3.13;2.38;;;;;;;;;;5111221;28;20044;-81
2023/02/15 01:57:47;;;;;;;2.85;2.50;;;;;;;;;;5110009;28;20024;-83
2023/02/15 02:00:13;;;;;;;2.95;1.50;;;;;;;;;;5122385;28;20110;-82
2023/02/15 02:02:39;;;;;;;2.10;1.90;;;;;;;;;;5106176;28;20035;-84
2023/02/15 02:05:06;;;;;;;4.50;2.35;;;;;;;;;;5102467;28;20046;-84
2023/02/15 02:07:36;;;;;;;2.22;2.00;;;;;;;;;;5090452;28;20020;-83
2023/02/15 02:10:03;;;;;;;4.60;2.40;;;;;;;;;;5105775;28;20077;-83
2023/02/15 02:12:33;;;;;;;2.33;2.22;;;;;;;;;;5108144;28;20270;-83
2023/02/15 02:15:00;;;;;;;2.60;2.40;;;;;;;;;;5075514;28;20039;-82
2023/02/15 02:17:46;;;;;;;3.17;2.30;;;;;;;;;;5128387;28;20084;-83
2023/02/15 02:20:13;;;;;;;3.10;2.17;;;;;;;;;;5129035;28;20035;-84
2023/02/15 02:23:02;;;;;;;3.67;1.88;;;;;;;;;;5124864;28;20415;-82
2023/02/15 02:25:29;;;;;;;2.30;2.10;;;;;;;;;;5116469;28;20027;-84
2023/02/15 02:28:03;;;;;;;3.78;1.70;;;;;;;;;;5125660;28;20040;-84
2023/02/15 02:30:33;;;;;;;5.47;2.45;;;;;;;;;;5125926;28;20038;-83
2023/02/15 02:33:18;;;;;;;6.45;2.17;;;;;;;;;;5116083;28;20237;-82
2023/02/15 02:35:47;;;;;;;4.93;2.22;;;;;;;;;;5097045;28;20075;-82
2023/02/15 02:38:16;;;;;;;3.00;1.85;;;;;;;;;;5121519;28;20057;-84
2023/02/15 02:40:58;;;;;;;2.45;2.25;;;;;;;;;;5121400;28;20027;-84
2023/02/15 02:43:33;;;;;;;2.13;1.77;;;;;;;;;;5125995;28;20052;-84
2023/02/15 02:46:03;;;;;;;2.17;1.55;;;;;;;;;;5124394;28;20031;-81
2023/02/15 02:48:30;;;;;;;3.42;2.63;;;;;;;;;;5099977;28;20054;-83
2023/02/15 02:50:59;;;;;;;6.43;2.58;;;;;;;;;;5088391;28;20027;-83
2023/02/15 02:53:25;;;;;;;9.07;2.75;;;;;;;;;;5128886;28;20035;-84
2023/02/15 02:55:53;;;;;;;2.60;2.03;;;;;;;;;;5109552;28;20047;-85
2023/02/15 02:58:37;;;;;;;2.20;1.60;;;;;;;;;;5120024;28;20027;-80
2023/02/15 03:01:06;;;;;;;2.47;1.80;;;;;;;;;;5086193;28;20031;-82
2023/02/15 03:03:33;;;;;;;5.60;2.58;;;;;;;;;;5120546;28;20094;-84
2023/02/15 03:06:00;;;;;;;1.92;1.83;;;;;;;;;;5115999;28;20543;-83
2023/02/15 03:08:28;;;;;;;2.22;2.05;;;;;;;;;;5124652;28;20036;-83
2023/02/15 03:10:55;;;;;;;2.30;2.10;;;;;;;;;;5107621;28;20129;-84
2023/02/15 03:13:21;;;;;;;2.35;1.92;;;;;;;;;;5110829;28;20032;-81
2023/02/15 03:18:34;;;;;;;2.58;2.20;;;;;;;;;;5107878;28;20029;-82
2023/02/15 03:21:00;;;;;;;2.30;2.10;;;;;;;;;;5105583;28;20039;-82
2023/02/15 03:23:26;;;;;;;2.47;1.98;;;;;;;;;;5126324;28;20552;-83
2023/02/15 03:25:54;;;;;;;1.80;1.70;;;;;;;;;;5125617;28;20052;-82
2023/02/15 03:28:24;;;;;;;2.33;2.13;;;;;;;;;;5126410;28;20084;-82
2023/02/15 03:30:51;;;;;;;2.15;1.60;;;;;;;;;;5131583;28;20039;-82
2023/02/15 03:33:18;;;;;;;1.95;1.85;;;;;;;;;;5132091;28;20069;-82
2023/02/15 03:35:45;;;;;;;2.88;2.17;;;;;;;;;;5130586;28;20061;-82
2023/02/15 03:38:11;;;;;;;4.85;2.08;;;;;;;;;;5128757;28;20206;-82
2023/02/15 03:43:31;;;;;;;4.93;2.40;;;;;;;;;;5118305;28;20047;-83
2023/02/15 03:45:59;;;;;;;4.93;2.55;;;;;;;;;;5122358;28;20035;-83
2023/02/15 03:48:30;;;;;;;2.70;2.28;;;;;;;;;;5104761;28;20059;-83
2023/02/15 03:53:41;;;;;;;2.90;2.20;;;;;;;;;;5121830;28;20035;-83
2023/02/15 03:56:07;;;;;;;2.80;2.30;;;;;;;;;;5123816;28;20411;-83
2023/02/15 04:04:03;;;;;;;2.15;2.05;;;;;;;;;;5090611;28;20565;-79
2023/02/15 04:06:29;;;;;;;3.22;2.85;;;;;;;;;;5090166;28;20061;-79
2023/02/15 04:11:40;;;;;;;3.85;2.55;;;;;;;;;;5105393;28;20032;-78
2023/02/15 04:16:51;;;;;;;4.22;2.67;;;;;;;;;;5112413;28;20058;-77
2023/02/15 04:27:34;;;;;;;5.03;2.38;;;;;;;;;;5108884;28;20031;-77
2023/02/15 04:30:00;;;;;;;4.18;2.95;;;;;;;;;;5104765;28;20032;-78
2023/02/15 04:32:29;;;;;;;5.70;3.20;;;;;;;;;;5083046;28;20537;-77
2023/02/15 04:34:55;;;;;;;2.35;2.15;;;;;;;;;;5088915;28;20636;-77
2023/02/15 04:37:21;;;;;;;4.68;2.53;;;;;;;;;;5096969;28;20039;-78
2023/02/15 04:39:47;;;;;;;4.93;2.03;;;;;;;;;;5090439;28;20414;-78
2023/02/15 04:42:13;;;;;;;3.00;2.80;;;;;;;;;;5109134;28;20035;-79
2023/02/15 04:44:39;;;;;;;6.55;2.50;;;;;;;;;;5108708;28;20050;-79
2023/02/15 04:47:05;;;;;;;2.65;2.22;;;;;;;;;;5110037;28;20077;-78
2023/02/15 04:49:31;;;;;;;4.10;2.90;;;;;;;;;;5109644;28;20564;-78
2023/02/15 04:51:57;;;;;;;2.38;2.15;;;;;;;;;;5075223;28;20032;-79
2023/02/15 04:54:23;;;;;;;3.08;2.63;;;;;;;;;;5091915;28;20051;-79
2023/02/15 04:56:49;;;;;;;2.10;2.00;;;;;;;;;;5110177;28;20024;-78
2023/02/15 04:59:15;;;;;;;2.15;2.05;;;;;;;;;;5090751;28;20043;-79
2023/02/15 05:01:42;;;;;;;2.88;2.50;;;;;;;;;;5074400;28;20031;-79
2023/02/15 05:04:09;;;;;;;2.25;2.15;;;;;;;;;;5109142;28;20051;-78
2023/02/15 05:06:35;;;;;;;4.53;2.33;;;;;;;;;;5108839;28;20073;-77
2023/02/15 05:09:00;;;;;;;3.47;2.20;;;;;;;;;;5102990;28;20039;-77
2023/02/15 05:11:27;;;;;;;2.83;2.40;;;;;;;;;;5109150;28;20031;-77
2023/02/15 05:13:53;;;;;;;2.30;2.10;;;;;;;;;;5109659;28;20057;-78
2023/02/15 05:16:19;;;;;;;7.32;3.03;;;;;;;;;;5092451;28;20061;-77
2023/02/15 05:18:46;;;;;;;2.33;2.10;;;;;;;;;;5110770;28;20031;-77
2023/02/15 05:21:13;;;;;;;2.42;2.20;;;;;;;;;;5094238;28;20031;-78
2023/02/15 05:23:39;;;;;;;5.07;2.35;;;;;;;;;;5039666;28;20070;-78
2023/02/15 05:28:50;;;;;;;2.42;2.22;;;;;;;;;;5092894;28;20483;-76
2023/02/15 05:31:16;;;;;;;4.80;2.17;;;;;;;;;;5110930;28;20122;-77
2023/02/15 05:33:42;;;;;;;3.30;2.97;;;;;;;;;;5083966;28;20062;-77
2023/02/15 05:36:09;;;;;;;8.82;2.95;;;;;;;;;;5109859;28;20041;-77
2023/02/15 05:38:37;;;;;;;3.75;2.58;;;;;;;;;;5107225;28;20035;-77
2023/02/15 05:41:04;;;;;;;3.35;2.42;;;;;;;;;;5082406;28;20036;-76
2023/02/15 05:43:30;;;;;;;2.60;2.10;;;;;;;;;;5109161;28;20587;-79
2023/02/15 05:45:56;;;;;;;3.97;2.80;;;;;;;;;;5095869;28;20035;-77
2023/02/15 05:48:23;;;;;;;2.47;2.30;;;;;;;;;;5102942;28;20470;-79
2023/02/15 05:51:02;;;;;;;2.83;1.98;;;;;;;;;;5096914;28;20028;-77
2023/02/15 05:53:29;;;;;;;6.63;2.20;;;;;;;;;;5084339;28;20024;-78
2023/02/15 05:55:58;;;;;;;2.65;2.33;;;;;;;;;;5091313;28;20118;-78
2023/02/15 05:58:27;;;;;;;4.93;2.30;;;;;;;;;;5109356;28;20062;-76
2023/02/15 06:00:53;;;;;;;3.95;2.75;;;;;;;;;;5077027;28;20044;-78
2023/02/15 06:03:19;;;;;;;7.50;4.30;;;;;;;;;;5092405;28;20036;-81
2023/02/15 06:05:46;;;;;;;8.45;3.78;;;;;;;;;;5076374;28;20114;-79
2023/02/15 06:08:12;;;;;;;6.20;3.53;;;;;;;;;;5101406;28;20043;-78
2023/02/15 06:10:39;;;;;;;6.18;2.63;;;;;;;;;;5065059;28;20182;-78
2023/02/15 06:13:06;;;;;;;4.65;2.75;;;;;;;;;;5097784;28;20035;-80
2023/02/15 06:15:32;;;;;;;5.65;2.88;;;;;;;;;;5089090;28;20462;-78
2023/02/15 06:17:58;;;;;;;6.43;2.92;;;;;;;;;;5109747;28;20167;-76
2023/02/15 06:20:24;;;;;;;4.15;2.80;;;;;;;;;;5093128;28;20685;-77
2023/02/15 06:22:50;;;;;;;3.35;2.92;;;;;;;;;;5089109;28;20482;-77
2023/02/15 06:25:16;;;;;;;11.70;2.25;;;;;;;;;;5088488;28;20039;-77
2023/02/15 06:27:42;;;;;;;3.33;2.67;;;;;;;;;;5071890;28;20038;-81
2023/02/15 06:30:09;;;;;;;8.48;2.67;;;;;;;;;;5086302;28;20379;-79
2023/02/15 06:32:35;;;;;;;3.38;2.92;;;;;;;;;;5091368;28;20037;-77
2023/02/15 06:35:01;;;;;;;6.75;3.00;;;;;;;;;;5108276;28;20051;-77
2023/02/15 06:37:28;;;;;;;4.72;2.65;;;;;;;;;;5091199;28;20392;-77
2023/02/15 06:39:54;;;;;;;3.28;3.08;;;;;;;;;;5099669;28;20047;-75
2023/02/15 06:42:20;;;;;;;4.80;2.88;;;;;;;;;;5054339;28;20458;-78
2023/02/15 06:44:46;;;;;;;2.38;2.17;;;;;;;;;;5108121;28;20041;-78
2023/02/15 06:47:12;;;;;;;8.73;4.55;;;;;;;;;;5086020;28;20414;-78
2023/02/15 06:49:39;;;;;;;8.93;3.80;;;;;;;;;;5108068;28;20123;-77
2023/02/15 06:52:05;;;;;;;5.22;3.15;;;;;;;;;;5088397;28;20027;-78
2023/02/15 06:54:31;;;;;;;11.13;3.83;;;;;;;;;;5096281;28;20448;-77
2023/02/15 06:56:57;;;;;;;8.27;4.07;;;;;;;;;;5108523;28;20038;-80
2023/02/15 06:59:23;;;;;;;8.32;3.90;;;;;;;;;;5100907;28;20466;-80
2023/02/15 07:01:49;;;;;;;5.63;3.88;;;;;;;;;;5105729;28;20031;-81
2023/02/15 07:04:15;;;;;;;7.35;3.67;;;;;;;;;;5110645;28;20031;-80
2023/02/15 07:06:41;;;;;;;9.98;3.03;;;;;;;;;;5109395;28;20059;-80
2023/02/15 07:09:07;;;;;;;5.70;3.47;;;;;;;;;;5108320;28;20086;-77
2023/02/15 07:14:17;;;;;;;3.22;2.92;;;;;;;;;;5107527;28;20067;-77
2023/02/15 07:16:44;;;;;;;4.63;2.97;;;;;;;;;;5085211;28;20530;-79
2023/02/15 07:19:10;;;;;;;5.22;4.05;;;;;;;;;;5099791;28;20115;-79
2023/02/15 07:21:36;;;;;;;5.93;3.13;;;;;;;;;;5101414;28;20046;-79
2023/02/15 07:24:02;;;;;;;2.95;2.63;;;;;;;;;;5108855;28;20047;-81
2023/02/15 07:26:28;;;;;;;3.42;2.60;;;;;;;;;;5109234;28;20024;-80
2023/02/15 07:28:53;;;;;;;4.50;3.03;;;;;;;;;;5057731;28;20050;-80
2023/02/15 07:31:20;;;;;;;4.43;3.40;;;;;;;;;;5095856;28;20058;-81
2023/02/15 07:33:46;;;;;;;4.32;3.45;;;;;;;;;;5089771;28;20092;-79
2023/02/15 07:36:12;;;;;;;6.40;3.63;;;;;;;;;;5091640;28;20040;-78
2023/02/15 07:38:38;;;;;;;3.88;3.58;;;;;;;;;;5103162;28;20031;-77
2023/02/15 07:41:05;;;;;;;6.05;4.22;;;;;;;;;;5088518;28;20122;-78
2023/02/15 07:43:32;;;;;;;4.35;3.33;;;;;;;;;;5101171;28;20075;-79
2023/02/15 07:46:02;;;;;;;5.93;3.15;;;;;;;;;;5091093;28;20032;-77
2023/02/15 07:48:28;;;;;;;3.95;3.58;;;;;;;;;;5108024;28;20072;-76
2023/02/15 07:50:54;;;;;;;4.82;3.15;;;;;;;;;;5108029;28;20130;-78
2023/02/15 07:53:20;;;;;;;6.60;3.42;;;;;;;;;;5090187;28;20042;-78
2023/02/15 07:55:46;;;;;;;6.32;3.28;;;;;;;;;;5107784;28;20039;-80
2023/02/15 07:58:12;;;;;;;3.28;3.08;;;;;;;;;;5090235;28;20035;-77
2023/02/15 08:00:56;;;;;;;6.80;4.28;;;;;;;;;;5111866;28;20108;-78
2023/02/15 08:03:26;;;;;;;4.80;3.40;;;;;;;;;;5114356;28;20036;-80
2023/02/15 08:05:55;;;;;;;4.20;3.85;;;;;;;;;;5095111;28;20543;-79
2023/02/15 08:08:30;;;;;;;5.30;3.38;;;;;;;;;;5091828;28;20043;-78
2023/02/15 08:13:53;;;;;;;6.82;3.90;;;;;;;;;;5092485;28;20032;-78
2023/02/15 08:16:20;;;;;;;5.25;4.28;;;;;;;;;;5072845;28;20051;-79
2023/02/15 08:18:46;;;;;;;3.97;3.55;;;;;;;;;;5093416;28;20023;-81
2023/02/15 08:21:12;;;;;;;3.63;3.22;;;;;;;;;;5104301;28;20097;-80
2023/02/15 08:23:38;;;;;;;3.97;3.47;;;;;;;;;;5113953;28;20034;-80
2023/02/15 08:26:05;;;;;;;5.00;3.95;;;;;;;;;;5075532;28;20032;-79
2023/02/15 08:28:31;;;;;;;6.00;3.28;;;;;;;;;;5111083;28;20660;-78
2023/02/15 08:31:07;;;;;;;3.85;3.45;;;;;;;;;;5091665;28;20039;-78
2023/02/15 08:33:36;;;;;;;3.33;3.03;;;;;;;;;;5110553;28;20407;-76
2023/02/15 08:36:05;;;;;;;5.05;3.13;;;;;;;;;;5092368;28;20036;-77
2023/02/15 08:38:32;;;;;;;5.32;2.75;;;;;;;;;;5092979;28;20407;-79
2023/02/15 08:40:58;;;;;;;6.07;3.70;;;;;;;;;;5111815;28;20034;-80
2023/02/15 08:43:23;;;;;;;5.55;3.88;;;;;;;;;;5095231;28;20146;-80
2023/02/15 08:45:50;;;;;;;7.82;5.50;;;;;;;;;;5118109;28;20575;-79
2023/02/15 08:48:16;;;;;;;6.30;4.50;;;;;;;;;;5125290;28;20046;-80
2023/02/15 08:50:42;;;;;;;8.55;3.55;;;;;;;;;;5124120;28;20019;-80
2023/02/15 08:53:08;;;;;;;4.22;3.78;;;;;;;;;;5112053;28;20039;-77
2023/02/15 08:55:34;;;;;;;4.75;2.80;;;;;;;;;;5118054;28;20043;-79
2023/02/15 08:58:00;;;;;;;4.15;3.78;;;;;;;;;;5104648;28;20032;-78
2023/02/15 09:00:28;;;;;;;4.32;3.92;;;;;;;;;;5117415;28;20044;-78
2023/02/15 09:02:54;;;;;;;2.40;2.20;;;;;;;;;;5112381;28;20035;-79
2023/02/15 09:05:20;;;;;;;4.28;2.92;;;;;;;;;;5111871;28;20114;-77
2023/02/15 09:07:47;;;;;;;3.60;3.25;;;;;;;;;;5112312;28;20041;-79
2023/02/15 09:10:13;;;;;;;4.80;3.35;;;;;;;;;;5074781;28;20028;-79
2023/02/15 09:12:41;;;;;;;3.92;3.10;;;;;;;;;;5094774;28;20027;-80
2023/02/15 09:15:07;;;;;;;8.20;3.70;;;;;;;;;;5106520;28;20040;-80
2023/02/15 09:17:34;;;;;;;5.68;3.90;;;;;;;;;;5102206;28;20035;-78
2023/02/15 09:20:02;;;;;;;4.07;3.65;;;;;;;;;;5097728;28;20035;-79
2023/02/15 09:22:29;;;;;;;3.83;3.38;;;;;;;;;;5070409;28;20105;-79
2023/02/15 09:24:55;;;;;;;4.72;3.45;;;;;;;;;;5091852;28;20035;-80
2023/02/15 09:27:22;;;;;;;2.58;2.47;;;;;;;;;;5091699;28;20178;-79
2023/02/15 09:29:48;;;;;;;6.25;4.35;;;;;;;;;;5093273;28;20542;-79
2023/02/15 09:32:17;;;;;;;3.45;3.15;;;;;;;;;;5110576;28;20063;-79
2023/02/15 09:34:43;;;;;;;6.05;3.30;;;;;;;;;;5079025;28;20043;-79
2023/02/15 09:37:11;;;;;;;6.18;4.50;;;;;;;;;;5096887;28;20042;-77
2023/02/15 09:39:39;;;;;;;3.38;3.08;;;;;;;;;;5067718;28;20023;-80
2023/02/15 09:42:08;;;;;;;4.40;3.08;;;;;;;;;;5073830;28;20081;-78
2023/02/15 09:44:39;;;;;;;3.80;2.67;;;;;;;;;;5100475;28;20131;-78
2023/02/15 09:47:09;;;;;;;2.63;2.42;;;;;;;;;;5107724;28;20039;-80
2023/02/15 09:49:54;;;;;;;3.45;2.75;;;;;;;;;;5098135;28;20038;-79
2023/02/15 09:52:38;;;;;;;4.30;3.45;;;;;;;;;;5082344;28;20032;-79
2023/02/15 09:55:07;;;;;;;6.18;3.40;;;;;;;;;;5107969;28;20143;-79
2023/02/15 09:57:36;;;;;;;4.68;3.75;;;;;;;;;;5108946;28;20494;-79
2023/02/15 10:00:20;;;;;;;3.78;3.38;;;;;;;;;;5108780;28;20056;-80
2023/02/15 10:02:51;;;;;;;6.10;3.30;;;;;;;;;;5098184;28;20036;-78
2023/02/15 10:05:21;;;;;;;3.38;3.08;;;;;;;;;;5060392;28;20027;-82
2023/02/15 10:07:51;;;;;;;3.20;2.80;;;;;;;;;;5096624;28;20464;-80
2023/02/15 10:10:18;;;;;;;3.88;3.53;;;;;;;;;;5076879;28;20027;-80
2023/02/15 10:12:47;;;;;;;3.03;2.63;;;;;;;;;;5095661;28;20039;-81
2023/02/15 10:15:19;;;;;;;3.72;2.95;;;;;;;;;;5092292;28;20494;-81
2023/02/15 10:17:54;;;;;;;3.35;3.13;;;;;;;;;;5105304;28;20039;-83
2023/02/15 10:20:26;;;;;;;2.88;2.60;;;;;;;;;;5055885;28;20133;-79
2023/02/15 10:22:53;;;;;;;3.33;2.22;;;;;;;;;;5103918;28;20387;-78
2023/02/15 10:25:29;;;;;;;3.70;2.85;;;;;;;;;;5108965;28;20471;-79
2023/02/15 10:27:55;;;;;;;2.97;2.78;;;;;;;;;;5091119;28;20568;-79
2023/02/15 10:30:31;;;;;;;6.32;3.22;;;;;;;;;;5073520;28;20080;-79
2023/02/15 10:33:01;;;;;;;4.03;3.00;;;;;;;;;;5090891;28;20114;-79
2023/02/15 10:35:45;;;;;;;2.50;2.10;;;;;;;;;;5111081;28;20601;-79
2023/02/15 10:38:37;;;;;;;2.42;2.22;;;;;;;;;;5083370;28;20093;-79
2023/02/15 10:41:07;;;;;;;3.00;2.80;;;;;;;;;;5105401;28;20107;-76
2023/02/15 10:43:37;;;;;;;3.72;1.73;;;;;;;;;;5109473;28;20044;-80
2023/02/15 10:46:23;;;;;;;2.22;1.90;;;;;;;;;;5085897;28;20027;-80
2023/02/15 10:48:52;;;;;;;4.78;2.65;;;;;;;;;;5110275;28;20388;-80
2023/02/15 10:51:29;;;;;;;3.08;1.80;;;;;;;;;;5091214;28;20035;-80
2023/02/15 10:54:06;;;;;;;2.97;2.72;;;;;;;;;;5109021;28;20023;-80
2023/02/15 10:56:35;;;;;;;2.90;2.70;;;;;;;;;;5110934;28;20043;-80
2023/02/15 10:59:01;;;;;;;1.95;1.85;;;;;;;;;;5108940;28;20047;-80
2023/02/15 11:01:48;;;;;;;1.77;1.67;;;;;;;;;;5074196;28;20047;-80
2023/02/15 11:04:32;;;;;;;3.55;2.88;;;;;;;;;;5090522;28;20036;-78
2023/02/15 11:06:59;;;;;;;2.45;2.25;;;;;;;;;;5089971;28;20058;-79
2023/02/15 11:09:25;;;;;;;3.80;2.20;;;;;;;;;;5109071;28;20027;-78
2023/02/15 11:11:52;;;;;;;2.05;1.85;;;;;;;;;;5108449;28;20060;-78
2023/02/15 11:14:45;;;;;;;2.35;2.25;;;;;;;;;;5073178;28;20101;-77
2023/02/15 11:17:32;;;;;;;2.28;2.15;;;;;;;;;;5105231;28;20042;-82
2023/02/15 11:20:02;;;;;;;4.15;3.85;;;;;;;;;;5053622;28;20202;-79
2023/02/15 11:22:29;;;;;;;2.30;2.20;;;;;;;;;;5074882;28;20081;-78
2023/02/15 11:24:57;;;;;;;2.20;1.77;;;;;;;;;;5071582;28;20302;-78
2023/02/15 11:27:25;;;;;;;2.13;1.92;;;;;;;;;;5090402;28;20031;-81
2023/02/15 11:30:04;;;;;;;3.10;2.50;;;;;;;;;;5096596;28;20115;-79
2023/02/15 11:32:30;;;;;;;3.88;2.10;;;;;;;;;;5107164;28;20030;-78
2023/02/15 11:34:59;;;;;;;1.80;1.70;;;;;;;;;;5116542;28;20048;-79
2023/02/15 11:37:33;;;;;;;2.28;2.10;;;;;;;;;;5105019;28;20036;-79
2023/02/15 11:40:00;;;;;;;1.65;1.63;;;;;;;;;;5089123;28;20035;-79
2023/02/15 11:42:26;;;;;;;2.17;1.98;;;;;;;;;;5112889;28;20107;-79
2023/02/15 11:44:56;;;;;;;3.30;2.55;;;;;;;;;;5077765;28;20161;-80
2023/02/15 11:47:22;;;;;;;2.58;2.45;;;;;;;;;;5079946;28;20077;-76
2023/02/15 11:49:48;;;;;;;2.28;2.17;;;;;;;;;;5052599;28;20452;-79
2023/02/15 11:52:14;;;;;;;2.83;2.63;;;;;;;;;;5073739;28;20035;-80
2023/02/15 11:54:42;;;;;;;2.33;2.22;;;;;;;;;;5107421;28;20039;-81
2023/02/15 11:57:15;;;;;;;1.95;1.77;;;;;;;;;;5089098;28;20407;-82
2023/02/15 11:59:43;;;;;;;2.35;2.20;;;;;;;;;;5072750;28;20089;-84
2023/02/15 12:02:14;;;;;;;2.45;2.28;;;;;;;;;;5083208;28;20110;-82
2023/02/15 12:04:40;;;;;;;2.80;2.60;;;;;;;;;;5098402;28;20083;-82
2023/02/15 12:07:07;;;;;;;5.22;2.60;;;;;;;;;;5088615;28;20028;-81
2023/02/15 12:09:35;;;;;;;2.05;1.95;;;;;;;;;;5078668;28;20112;-79
2023/02/15 12:12:20;;;;;;;2.10;2.00;;;;;;;;;;5103271;28;20066;-78
2023/02/15 12:14:47;;;;;;;4.07;2.60;;;;;;;;;;5106479;28;20039;-78
2023/02/15 12:17:13;;;;;;;1.80;1.70;;;;;;;;;;5090093;28;20059;-80
2023/02/15 12:19:40;;;;;;;2.92;2.72;;;;;;;;;;5103498;28;20062;-77
2023/02/15 12:22:06;;;;;;;2.08;1.98;;;;;;;;;;5098946;28;20036;-79
2023/02/15 12:24:33;;;;;;;2.92;2.38;;;;;;;;;;5063508;28;20514;-78
2023/02/15 12:27:21;;;;;;;2.25;2.15;;;;;;;;;;5108914;28;20458;-80
2023/02/15 12:29:55;;;;;;;2.63;2.40;;;;;;;;;;5110223;28;20020;-77
2023/02/15 12:32:24;;;;;;;1.95;1.85;;;;;;;;;;5105150;28;20070;-79
2023/02/15 12:34:51;;;;;;;1.90;1.88;;;;;;;;;;5101691;28;20507;-78
2023/02/15 12:37:18;;;;;;;2.47;2.28;;;;;;;;;;5075132;28;20050;-76
2023/02/15 12:39:54;;;;;;;2.15;1.95;;;;;;;;;;5109531;28;20027;-74
2023/02/15 12:42:21;;;;;;;2.38;2.17;;;;;;;;;;5108703;28;20043;-75
2023/02/15 12:45:00;;;;;;;4.15;2.28;;;;;;;;;;5091149;28;20028;-82
2023/02/15 12:47:26;;;;;;;2.40;2.28;;;;;;;;;;5072357;28;20039;-80
2023/02/15 12:50:05;;;;;;;1.92;1.83;;;;;;;;;;5086994;28;20407;-81
2023/02/15 12:52:31;;;;;;;2.28;2.17;;;;;;;;;;5104845;28;20035;-81
2023/02/15 12:55:07;;;;;;;2.55;2.35;;;;;;;;;;5111802;28;20563;-78
2023/02/15 12:57:33;;;;;;;2.92;2.72;;;;;;;;;;5091179;28;20071;-77
2023/02/15 13:00:08;;;;;;;2.00;1.90;;;;;;;;;;5097892;28;20066;-77
2023/02/15 13:02:36;;;;;;;2.05;1.95;;;;;;;;;;5090398;28;20040;-77
2023/02/15 13:05:23;;;;;;;2.80;2.60;;;;;;;;;;5071229;28;20607;-78
2023/02/15 13:07:50;;;;;;;2.35;2.15;;;;;;;;;;5099553;28;20560;-75
2023/02/15 13:10:24;;;;;;;2.22;2.13;;;;;;;;;;5080571;28;20514;-76
2023/02/15 13:12:53;;;;;;;3.42;2.05;;;;;;;;;;5082770;28;20044;-75
2023/02/15 13:15:27;;;;;;;2.35;2.15;;;;;;;;;;5095204;28;20050;-75
2023/02/15 13:17:53;;;;;;;4.07;2.95;;;;;;;;;;5091541;28;20110;-75
2023/02/15 13:20:20;;;;;;;3.75;2.00;;;;;;;;;;5109053;28;20402;-76
2023/02/15 13:22:47;;;;;;;1.92;1.83;;;;;;;;;;5106168;28;20031;-75
2023/02/15 13:25:24;;;;;;;3.05;2.15;;;;;;;;;;5091217;28;20062;-75
2023/02/15 13:27:54;;;;;;;3.00;2.80;;;;;;;;;;5108977;28;20039;-76
2023/02/15 13:30:24;;;;;;;6.55;3.97;;;;;;;;;;5103272;28;20032;-77
2023/02/15 13:32:52;;;;;;;5.43;4.20;;;;;;;;;;5067679;28;20032;-79
2023/02/15 13:35:18;;;;;;;2.63;2.50;;;;;;;;;;5108270;28;20078;-75
2023/02/15 13:37:47;;;;;;;2.50;2.40;;;;;;;;;;5108549;28;20023;-80
2023/02/15 13:40:20;;;;;;;2.88;2.55;;;;;;;;;;5077021;28;20456;-77
2023/02/15 13:43:15;;;;;;;3.50;2.30;;;;;;;;;;5090121;28;20039;-77
2023/02/15 13:45:44;;;;;;;2.70;2.50;;;;;;;;;;5018080;28;20045;-77
2023/02/15 13:48:36;;;;;;;2.45;2.20;;;;;;;;;;5107810;28;20032;-76
2023/02/15 13:51:02;;;;;;;4.30;2.80;;;;;;;;;;5075055;28;20054;-78
2023/02/15 13:53:47;;;;;;;3.20;2.45;;;;;;;;;;5090822;28;20103;-78
2023/02/15 13:56:18;;;;;;;3.97;2.63;;;;;;;;;;5094580;28;20035;-75
2023/02/15 13:59:07;;;;;;;5.25;2.50;;;;;;;;;;5089363;28;20423;-77
2023/02/15 14:01:43;;;;;;;3.05;2.78;;;;;;;;;;5062273;28;20039;-77
2023/02/15 14:04:12;;;;;;;2.20;2.10;;;;;;;;;;5108986;28;20050;-75
2023/02/15 14:06:38;;;;;;;3.78;2.10;;;;;;;;;;5090510;28;20089;-77
2023/02/15 14:09:17;;;;;;;3.13;2.10;;;;;;;;;;5077530;28;20032;-78
2023/02/15 14:12:02;;;;;;;2.30;2.10;;;;;;;;;;5083993;28;20502;-78
2023/02/15 14:14:31;;;;;;;2.17;1.80;;;;;;;;;;5105913;28;20038;-78
2023/02/15 14:17:10;;;;;;;2.20;2.10;;;;;;;;;;5087896;28;20039;-77
2023/02/15 14:19:44;;;;;;;2.30;2.17;;;;;;;;;;5066981;28;20033;-77
2023/02/15 14:22:12;;;;;;;2.30;2.20;;;;;;;;;;5023184;28;20048;-75
2023/02/15 14:25:01;;;;;;;2.08;1.98;;;;;;;;;;5106503;28;20058;-74
2023/02/15 14:27:41;;;;;;;1.80;1.80;;;;;;;;;;5098871;28;20069;-77
2023/02/15 14:30:13;;;;;;;1.60;1.60;;;;;;;;;;5109968;28;20038;-77
2023/02/15 14:33:02;;;;;;;2.08;1.98;;;;;;;;;;5091483;28;20031;-77
2023/02/15 14:35:30;;;;;;;2.53;2.35;;;;;;;;;;5095542;28;20419;-77
2023/02/15 14:38:00;;;;;;;1.80;1.70;;;;;;;;;;5108751;28;20028;-78
2023/02/15 14:43:32;;;;;;;3.47;1.80;;;;;;;;;;5092656;28;20031;-77
2023/02/15 14:49:26;;;;;;;2.15;2.05;;;;;;;;;;5078288;28;20043;-77
2023/02/15 14:51:57;;;;;;;2.20;2.08;;;;;;;;;;5050708;28;20032;-78
2023/02/15 14:54:29;;;;;;;3.28;2.70;;;;;;;;;;5060742;28;20068;-79
2023/02/15 14:57:01;;;;;;;1.88;1.77;;;;;;;;;;5078199;28;20101;-79
2023/02/15 14:59:40;;;;;;;2.53;2.42;;;;;;;;;;5056803;28;20049;-78
2023/02/15 15:02:06;;;;;;;1.90;1.90;;;;;;;;;;5053043;28;20037;-78
2023/02/15 15:04:37;;;;;;;1.83;1.77;;;;;;;;;;5060997;28;20095;-78
2023/02/15 15:07:13;;;;;;;2.35;2.20;;;;;;;;;;5067551;28;20028;-78
2023/02/15 15:09:59;;;;;;;3.13;2.85;;;;;;;;;;5067814;28;20055;-78
2023/02/15 15:12:25;;;;;;;1.20;1.20;;;;;;;;;;5070696;28;20020;-77
2023/02/15 15:15:34;;;;;;;;;;;;;;;;;;;;;
2023/02/15 15:18:09;;;;;;;1.17;1.17;;;;;;;;;;5070737;28;20063;-78
2023/02/15 15:20:56;;;;;;;1.80;1.70;;;;;;;;;;5068381;28;20036;-77
2023/02/15 15:23:23;;;;;;;1.88;1.77;;;;;;;;;;5069821;28;20067;-79
2023/02/15 15:25:55;;;;;;;1.42;1.40;;;;;;;;;;5072133;28;20043;-78
2023/02/15 15:28:44;;;;;;;3.22;1.77;;;;;;;;;;5071352;28;20044;-76
2023/02/15 15:31:25;;;;;;;3.47;2.50;;;;;;;;;;5065513;28;20051;-78
2023/02/15 15:33:58;;;;;;;1.83;1.75;;;;;;;;;;5065521;28;20100;-80
2023/02/15 15:36:37;;;;;;;2.72;2.53;;;;;;;;;;5071099;28;20536;-78
2023/02/15 15:39:12;;;;;;;2.92;2.10;;;;;;;;;;5052023;28;20040;-80